Terminal Aerodrome Forecast
Issued by NWS Cleveland, OH

Home | Current Version | Previous Version | Text Only | Print | Product List | Glossary On
Versions: 1 2 3 4 5 6 7 8 9 10 11 12 13 14 15 16
000
FTUS41 KCLE 010500
TAFERI
TAF
KERI 010520Z 0106/0206 18005KT P6SM SCT003
      TEMPO 0106/0109 5SM BR BKN003
     FM010900 18005KT 5SM BR BKN003
      TEMPO 0109/0113 3SM BR
     FM011400 19006KT 6SM BR SCT008 BKN012
      TEMPO 0114/0116 5SM HZ BKN008
     FM011600 22010KT P6SM BKN025
     FM011800 24012KT P6SM BKN045
     FM012000 22010KT P6SM SCT045 BKN250
     FM020200 18010KT 6SM BR BKN045=

USA.gov is the U.S. government's official web portal to all federal, state and local government web resources and services.